sim
Sign-in with your pilot id or email,
or register
Callsign
Passwort

Schedule Details

Flight Number: RYR6954
Departure: Fuerteventura Airport (GCFV) at 11:10
Arrival: Glasgow Prestwick Airport (EGPK) at 15:40
Route: Ryanair Passenger Schedule. Enter filed route here before submitting Pirep.

Weather Information
Getting current METAR information for GCFV 211630Z 04005KT 010V080 CAVOK 20/14 Q1020
Getting current METAR information for EGPK 211620Z 16010KT 9999 SCT015 12/09 Q1022

Schedule Frequency

Route Map